Buyck, Minnesota
Current Conditions -  °F | °C
As of 8:13 AM on Monday 26 Jan 2015 (Local Time) from KORB Reporting Station
Light Snow Light Snow  
Wind Chill: 21°   Ceiling: 1400
Heat Index: 21°   Visibility: 1.7mi
Dew Point: 19°   Wind: 0mph
Humidity: 93%   Direction: NA
Pressure: 29.55"   Gusts: NA
Location:  48.1455°N, 92.8504°W
Report Text: KORB 261413Z AUTO 00000KT 1 3/4SM -SN SCT008 OVC014 M06/M07 A2955 RMK AO2
Loading
Personal Weather Stations






























Interactive Weather Map New forecast layout! Learn more

10-Day Weather Forecast

Advertisements
Track Severe Weather on mobile